M I D A S
Marine Information and Data Acquisition System
Tripno 444 of the Zeeleeuw from 2003-03-11 07:39:54 to 2003-03-11 13:04:54
Back to CruiseResearch ActivitiesStationsMapUnderway DataData graphs

EquipmentUnitsComment
TimeDGPSUTC
LatitudeDGPSDM.mWGS84
LongitudeDGPSDM.mWGS84
HeadingGyrodeg 
SOGDGPSknotsSpeed over ground
COGDGPSdegCourse over ground
DepthEcho soundermeters200 kHz
Missing or incorrect values are displayed as -999
Navigation data collected by the RV Zeeleeuw from 2003-03-11 07:39:54 to 2003-03-11 13:04:54
Time Latitude Longitude Heading SOG COG Depth
2003-03-11 07:41:00 51°13.603 2°56.052 113.8 4 293 -999
2003-03-11 07:42:00 51°13.637 2°55.932 121.9 5.2 298 -999
2003-03-11 07:43:00 51°13.681 2°55.809 120.2 4.8 299 -999
2003-03-11 07:43:58 51°13.698 2°55.755 92 0.8 306 12.5
2003-03-11 07:44:59 51°13.706 2°55.759 46.3 0.6 243 12.4
2003-03-11 07:45:59 51°13.699 2°55.736 23.1 0.5 341 4.8
2003-03-11 07:46:59 51°13.743 2°55.707 335.2 5.1 331 11
2003-03-11 07:47:58 51°13.839 2°55.62 335.8 7.3 331 10.9
2003-03-11 07:48:59 51°13.953 2°55.529 337.7 7.9 333 10.7
2003-03-11 07:49:58 51°14.068 2°55.439 339.3 7.9 334 10.7
2003-03-11 07:50:59 51°14.187 2°55.346 335.7 7.5 332 11.4
2003-03-11 07:51:58 51°14.279 2°55.231 316.6 7.7 314 11.3
2003-03-11 07:52:59 51°14.369 2°55.044 310 9.2 305 11.4
2003-03-11 07:53:59 51°14.43 2°54.817 281.6 9.3 279 11.5
2003-03-11 07:54:59 51°14.413 2°54.593 256.5 7.4 254 11.8
2003-03-11 07:55:58 51°14.374 2°54.489 225.6 3.5 223 10.6
2003-03-11 07:56:59 51°14.334 2°54.46 204.3 2.2 191 10.2
2003-03-11 07:57:58 51°14.304 2°54.45 212.4 1.7 196 10.2
2003-03-11 07:58:59 51°14.279 2°54.431 229.6 1.6 217 9.9
2003-03-11 07:59:59 51°14.265 2°54.396 252.2 1.6 249 9.9
2003-03-11 08:00:58 51°14.253 2°54.324 247.2 5.9 246 9.9
2003-03-11 08:01:58 51°14.173 2°54.098 243.4 11.1 240 9.8
2003-03-11 08:02:58 51°14.078 2°53.833 243.6 11.7 240 9.8
2003-03-11 08:03:59 51°13.979 2°53.558 243.8 11.7 240 9.9
2003-03-11 08:04:59 51°13.882 2°53.287 244 11.8 241 9.8
2003-03-11 08:05:58 51°13.782 2°53.005 244.3 13.1 241 10
2003-03-11 08:06:59 51°13.676 2°52.686 246 13.5 242 10.3
2003-03-11 08:07:58 51°13.573 2°52.373 246.2 13.5 242 10.6
2003-03-11 08:08:58 51°13.468 2°52.055 246.1 13.6 242 10.8
2003-03-11 08:09:59 51°13.363 2°51.73 246 13.6 242 10.8
2003-03-11 08:10:58 51°13.26 2°51.414 246.1 13.6 242 10.8
2003-03-11 08:11:59 51°13.153 2°51.088 246.1 13.6 242 11
2003-03-11 08:12:59 51°13.05 2°50.771 246.2 13.5 242 11.1
2003-03-11 08:13:59 51°12.946 2°50.455 246.5 13.5 243 11.2
2003-03-11 08:14:59 51°12.842 2°50.136 246.2 13.6 243 11.2
2003-03-11 08:15:59 51°12.738 2°49.816 246.4 13.6 243 11.4
2003-03-11 08:16:58 51°12.635 2°49.5 246.4 13.7 243 11.5
2003-03-11 08:17:59 51°12.529 2°49.173 246.2 13.6 243 11.7
2003-03-11 08:18:59 51°12.425 2°48.853 246.6 13.6 243 11.7
2003-03-11 08:19:58 51°12.319 2°48.543 245.2 13.5 242 11.8
2003-03-11 08:20:59 51°12.209 2°48.219 244.7 13.6 241 11.9
2003-03-11 08:21:58 51°12.104 2°47.905 245.2 13.6 242 11.9
2003-03-11 08:22:59 51°11.995 2°47.583 245.2 13.6 242 11.9
2003-03-11 08:23:59 51°11.888 2°47.265 245.4 13.7 242 11.8
2003-03-11 08:24:59 51°11.778 2°46.945 245.3 13.7 242 11.6
2003-03-11 08:25:58 51°11.671 2°46.627 245.3 13.7 242 11.6
2003-03-11 08:26:59 51°11.564 2°46.302 245.6 13.7 242 11.6
2003-03-11 08:27:59 51°11.457 2°45.983 245.7 13.7 242 11.3
2003-03-11 08:28:59 51°11.348 2°45.663 244.9 13.7 242 11.1
2003-03-11 08:29:59 51°11.243 2°45.344 245.2 13.7 242 10.7
2003-03-11 08:30:59 51°11.136 2°45.023 245.4 13.7 242 10.5
2003-03-11 08:31:58 51°11.031 2°44.707 245.3 13.7 242 10.1
2003-03-11 08:32:59 51°10.922 2°44.379 245.3 13.7 242 9.9
2003-03-11 08:33:59 51°10.815 2°44.058 245.5 13.7 242 9.6
2003-03-11 08:34:59 51°10.71 2°43.737 245.4 13.7 243 9.4
2003-03-11 08:35:59 51°10.671 2°43.386 277.4 13.7 273 9.7
2003-03-11 08:36:59 51°10.699 2°43.023 282.8 13.9 279 10.7
2003-03-11 08:37:59 51°10.735 2°42.658 282.6 13.9 279 11.6
2003-03-11 08:38:59 51°10.764 2°42.288 282.6 13.9 279 12.3
2003-03-11 08:39:59 51°10.803 2°41.926 283 13.9 279 12.7
2003-03-11 08:40:59 51°10.842 2°41.567 283 13.9 280 12.7
2003-03-11 08:41:59 51°10.866 2°41.207 265.8 13.6 264 12.5
2003-03-11 08:42:59 51°10.778 2°40.878 238 13.6 237 12.7
2003-03-11 08:43:59 51°10.606 2°40.658 211.2 13.6 209 12.9
2003-03-11 08:44:59 51°10.406 2°40.485 210.5 13.7 209 12.7
2003-03-11 08:45:59 51°10.208 2°40.306 211.2 13.7 210 11.8
2003-03-11 08:46:59 51°10.011 2°40.124 211.8 13.7 211 10.9
2003-03-11 08:47:59 51°9.819 2°39.93 219.9 13.7 217 10.1
2003-03-11 08:48:59 51°9.742 2°39.604 273.8 13.7 270 10.3
2003-03-11 08:49:59 51°9.807 2°39.255 301.4 13.9 297 11.1
2003-03-11 08:50:59 51°9.922 2°38.937 305.8 14.1 301 13
2003-03-11 08:51:59 51°10.04 2°38.616 305.6 14 301 15.2
2003-03-11 08:52:59 51°10.169 2°38.305 306.2 14.2 303 15.9
2003-03-11 08:53:59 51°10.234 2°37.964 269.6 13.5 267 16.7
2003-03-11 08:54:59 51°10.131 2°37.649 230.5 13.8 229 17.4
2003-03-11 08:55:59 51°9.967 2°37.395 225.7 13.8 224 17.2
2003-03-11 08:56:59 51°9.802 2°37.142 225.6 13.8 224 16.7
2003-03-11 08:57:59 51°9.638 2°36.887 225.9 13.8 225 16.1
2003-03-11 08:58:59 51°9.474 2°36.629 226 14 225 15.6
2003-03-11 08:59:59 51°9.309 2°36.37 226 13.9 225 15.7
2003-03-11 09:00:58 51°9.146 2°36.108 227.2 14 226 15.3
2003-03-11 09:01:59 51°9.092 2°35.768 288 13.7 282 15.9
2003-03-11 09:02:59 51°9.258 2°35.546 353.6 13.5 346 16.4
2003-03-11 09:03:59 51°9.483 2°35.46 350.6 14.1 345 17.7
2003-03-11 09:04:59 51°9.707 2°35.363 351 14 345 18.4
2003-03-11 09:05:58 51°9.929 2°35.268 351 14.1 346 14.7
2003-03-11 09:06:59 51°10.158 2°35.2 5.3 13.9   10.9
2003-03-11 09:07:59 51°10.367 2°35.343 39.9 13.9 35 10.7
2003-03-11 09:08:59 51°10.541 2°35.581 46.9 13.8 42 10.1
2003-03-11 09:09:59 51°10.704 2°35.838 49.6 13.8 45 10.5
2003-03-11 09:10:58 51°10.864 2°36.093 50.6 13.8 46 11
2003-03-11 09:11:59 51°11.028 2°36.357 50.3 13.7 45 11.6
2003-03-11 09:12:59 51°11.189 2°36.618 50.4 13.8 45 12.3
2003-03-11 09:13:59 51°11.349 2°36.876 50.3 13.8 45 12.8
2003-03-11 09:14:59 51°11.51 2°37.136 50.2 13.8 46 13.3
2003-03-11 09:15:59 51°11.671 2°37.395 50.1 13.7 46 13.6
2003-03-11 09:16:59 51°11.83 2°37.656 50.8 13.7 46 13.5
2003-03-11 09:17:59 51°11.99 2°37.917 50.4 13.9 44 13.5
2003-03-11 09:18:59 51°12.15 2°38.174 50.7 13.6 45 13.5
2003-03-11 09:19:59 51°12.31 2°38.429 50 13.6 45 13.4
2003-03-11 09:20:59 51°12.493 2°38.637 32.7 13.6 27 13.1
2003-03-11 09:21:59 51°12.704 2°38.78 26.1 13.8 20 13.1
2003-03-11 09:22:59 51°12.92 2°38.903 25.6 13.9 20 13.2
2003-03-11 09:23:59 51°13.138 2°39.022 24.4 13.9 19 13.9
2003-03-11 09:24:59 51°13.357 2°39.139 25.3 13.9 19 14.5
2003-03-11 09:25:59 51°13.577 2°39.257 24.7 13.9 19 14.5
2003-03-11 09:26:59 51°13.793 2°39.374 24.8 13.8 18 13.8
2003-03-11 09:27:59 51°14.016 2°39.447 10.4 13.9 5 13.4
2003-03-11 09:28:58 51°14.236 2°39.395 340.6 13.7 336 12.9
2003-03-11 09:29:59 51°14.405 2°39.145 311.5 13.9 307 14.5
2003-03-11 09:30:59 51°14.522 2°38.829 292.9 13.9 289 17.1
2003-03-11 09:31:59 51°14.505 2°38.472 257.6 13.8 255 17.1
2003-03-11 09:32:59 51°14.429 2°38.122 251.8 14 249 16.1
2003-03-11 09:33:58 51°14.347 2°37.782 251.5 14.1 249 15.1
2003-03-11 09:34:59 51°14.261 2°37.425 251.8 14.1 249 14.1
2003-03-11 09:35:59 51°14.177 2°37.074 251.8 14.1 249 13.6
2003-03-11 09:36:59 51°14.095 2°36.723 252.3 14.1 250 13.7
2003-03-11 09:37:59 51°14.013 2°36.371 252.1 14.1 249 14.2
2003-03-11 09:38:59 51°13.931 2°36.024 252.5 14.1 250 14.6
2003-03-11 09:39:59 51°13.849 2°35.673 255.2 14 252 14.2
2003-03-11 09:40:59 51°13.893 2°35.327 311.6 13.7 307 13.3
2003-03-11 09:41:58 51°14.095 2°35.178 352.4 14.1 346 16
2003-03-11 09:42:59 51°14.331 2°35.156 6.4 14   19.1
2003-03-11 09:43:59 51°14.564 2°35.152 6.7 13.8   18.5
2003-03-11 09:44:59 51°14.795 2°35.154 7.2 13.9   19.9
2003-03-11 09:45:59 51°15.026 2°35.154 6.2 14   23.5
2003-03-11 09:46:59 51°15.254 2°35.131 347.5 13.5 343 25.7
2003-03-11 09:47:59 51°15.347 2°34.847 271.1 12.1 268 25.5
2003-03-11 09:48:59 51°15.258 2°34.586 231.4 11.4 229 25.7
2003-03-11 09:49:59 51°15.114 2°34.385 222 11.6 219 25.7
2003-03-11 09:50:59 51°14.971 2°34.171 225.1 11.6 222 25.7
2003-03-11 09:51:59 51°14.821 2°33.981 221.5 11.6 218 25.4
2003-03-11 09:52:59 51°14.675 2°33.785 222.4 11.5 219 24.8
2003-03-11 09:53:59 51°14.523 2°33.602 221 11.4 217 25.2
2003-03-11 09:54:59 51°14.371 2°33.42 220.9 11.5 217 24.2
2003-03-11 09:55:59 51°14.216 2°33.23 220.8 11.6 217 24.5
2003-03-11 09:56:59 51°14.062 2°33.043 220.9 11.6 217 24.3
2003-03-11 09:57:59 51°13.909 2°32.855 221 11.6 218 23.7
2003-03-11 09:58:59 51°13.755 2°32.668 220.9 11.7 218 24.4
2003-03-11 09:59:59 51°13.591 2°32.468 220.9 13.7 218 24.1
2003-03-11 10:00:59 51°13.403 2°32.252 219.2 14.1 215 24.4
2003-03-11 10:01:59 51°13.211 2°32.041 217 14 214 24.2
2003-03-11 10:02:58 51°13.017 2°31.848 213.9 14 211 23.7
2003-03-11 10:03:59 51°12.81 2°31.659 212 13.9 209 22.8
2003-03-11 10:04:59 51°12.605 2°31.49 210.2 14.1 207 23
2003-03-11 10:05:59 51°12.395 2°31.323 208.1 14.1 205 21.9
2003-03-11 10:06:59 51°12.182 2°31.164 208 14.2 205 21.5
2003-03-11 10:07:59 51°11.97 2°31.004 208.1 14 205 21.2
2003-03-11 10:08:59 51°11.766 2°30.824 219.9 14 217 19.3
2003-03-11 10:09:59 51°11.619 2°30.538 244.5 14.2 240 18.5
2003-03-11 10:10:59 51°11.534 2°30.184 255.5 14.3 251 18.4
2003-03-11 10:11:59 51°11.468 2°29.818 259.9 14.4 256 19.1
2003-03-11 10:12:59 51°11.406 2°29.452 260.3 14.5 256 20.8
2003-03-11 10:13:59 51°11.345 2°29.078 259.8 14.6 255 20.2
2003-03-11 10:14:58 51°11.287 2°28.705 260.2 14.7 256 21.1
2003-03-11 10:15:59 51°11.228 2°28.321 260.1 14.7 256 21
2003-03-11 10:16:58 51°11.17 2°27.948 260.3 14.8 257 17.9
2003-03-11 10:17:58 51°11.115 2°27.565 260.3 14.8 257 21.9
2003-03-11 10:18:59 51°11.058 2°27.178 260.2 14.7 257 22
2003-03-11 10:19:59 51°11.003 2°26.796 260.3 14.8 257 21.2
2003-03-11 10:20:59 51°10.947 2°26.416 260.3 14.7 257 19.9
2003-03-11 10:21:59 51°10.892 2°26.035 260.3 14.8 257 17.7
2003-03-11 10:22:59 51°10.837 2°25.655 260.8 14.7 258 15.9
2003-03-11 10:23:59 51°10.843 2°25.271 287.9 14.6 283 12.6
2003-03-11 10:24:59 51°10.976 2°24.96 325.7 14.4 318 22.2
2003-03-11 10:25:58 51°11.189 2°24.841   13.8 353 24.3
2003-03-11 10:26:59 51°11.423 2°24.818 4.3 13.8 357 26.3
2003-03-11 10:27:59 51°11.652 2°24.789 2.3 13.8 355 24.9
2003-03-11 10:28:59 51°11.882 2°24.764 2.3 13.9 356 24.8
2003-03-11 10:29:59 51°12.111 2°24.745 1.9 13.9 356 25.3
2003-03-11 10:30:59 51°12.34 2°24.725 2.1 13.8 356 27.1
2003-03-11 10:31:59 51°12.57 2°24.705 2.6 13.9 357 29
2003-03-11 10:32:59 51°12.798 2°24.7 13.7 13.7 7 27.9
2003-03-11 10:33:59 51°12.997 2°24.854 43.3 13.3 38 27.8
2003-03-11 10:34:59 51°13.139 2°25.129 62.1 13.5 59 27.9
2003-03-11 10:35:59 51°13.246 2°25.442 63 13.4 61 26
2003-03-11 10:36:59 51°13.351 2°25.756 66.3 13.5 64 26.1
2003-03-11 10:37:59 51°13.45 2°26.078 67.3 13.9 65 26.1
2003-03-11 10:38:59 51°13.548 2°26.404 67.3 13.6 64 25.9
2003-03-11 10:39:59 51°13.638 2°26.729 68.6 13.4 64 25.5
2003-03-11 10:40:59 51°13.734 2°27.047 67.5 13.2 65 25.3
2003-03-11 10:41:59 51°13.823 2°27.364 68.9 13.2 67 25.3
2003-03-11 10:42:59 51°13.913 2°27.689 71.7 13.5 69 25.1
2003-03-11 10:43:59 51°14.001 2°28.019 69.1 13.5 65 25.5
2003-03-11 10:44:59 51°14.124 2°28.306 41.1 13.2 37 24.9
2003-03-11 10:45:59 51°14.334 2°28.378 0.3 13.4 355 26.2
2003-03-11 10:46:59 51°14.56 2°28.336 0.6 13.7 355 27.1
2003-03-11 10:47:59 51°14.787 2°28.309 3.3 13.6 357 28.1
2003-03-11 10:48:59 51°15.015 2°28.294 4.3 13.8 357 28.1
2003-03-11 10:49:59 51°15.242 2°28.285 3.8 13.7 358 27.6
2003-03-11 10:50:59 51°15.469 2°28.275 3.9 13.8 357 27.2
2003-03-11 10:51:59 51°15.699 2°28.258 3.7 13.9 357 27.3
2003-03-11 10:52:59 51°15.928 2°28.243 3.9 13.9 358 26.8
2003-03-11 10:53:59 51°16.158 2°28.232 4.1 14 358 27
2003-03-11 10:54:59 51°16.362 2°28.344 48.2 12.9 43 26.7
2003-03-11 10:55:59 51°16.461 2°28.654 77.8 13.5 74 27.1
2003-03-11 10:56:59 51°16.517 2°29.002 76 13.5 73 27.2
2003-03-11 10:57:59 51°16.586 2°29.348 75.1 13.8 72 27.4
2003-03-11 10:59:00 51°16.654 2°29.701 75.4 13.7 72 27.1
2003-03-11 11:00:00 51°16.716 2°30.036 75.5 13.6 73 26.9
2003-03-11 11:01:00 51°16.792 2°30.381 75.2 13.7 71 27.2
2003-03-11 11:02:21 51°16.893 2°30.841 72.7 11.9 70 26.8
2003-03-11 11:03:20 51°16.967 2°31.172 73.6 13.5 70 26.7
2003-03-11 11:04:20 51°17.037 2°31.503 74.6 13 72 26.6
2003-03-11 11:05:23 51°17.121 2°31.85 72.9 12.9 68 25.2
2003-03-11 11:06:23 51°17.202 2°32.175 73.5 13.1 69 25.5
2003-03-11 11:07:23 51°17.282 2°32.508 72.6 13.7 69 26.7
2003-03-11 11:08:23 51°17.366 2°32.835 69.4 13.1 67 25.7
2003-03-11 11:09:23 51°17.504 2°33.097 37.1 12.8 30 26
2003-03-11 11:10:23 51°17.709 2°33.22 23.2 13.4 15 26.3
2003-03-11 11:11:23 51°17.931 2°33.221 359.4 13.8 351 22.6
2003-03-11 11:12:23 51°18.153 2°33.125 352.4 14 344 19.8
2003-03-11 11:13:23 51°18.373 2°33.028 353.2 13.9 345 21.8
2003-03-11 11:14:23 51°18.596 2°32.932 352.2 13.9 345 24.9
2003-03-11 11:15:23 51°18.82 2°32.838 353 13.8 345 24.4
2003-03-11 11:16:23 51°19.039 2°32.736 351.9 13.6 343 28.7
2003-03-11 11:17:23 51°19.257 2°32.63 350.5 13.6 342 28.9
2003-03-11 11:18:22 51°19.469 2°32.518 350.1 13.7 341 29.6
2003-03-11 11:19:22 51°19.684 2°32.405 350 13.6 341 29.6
2003-03-11 11:20:23 51°19.906 2°32.287 349.8 13.8 342 30
2003-03-11 11:21:23 51°20.128 2°32.24 20.1 13.4 12 29.6
2003-03-11 11:22:23 51°20.319 2°32.412 47.5 13.2 42 29.8
2003-03-11 11:23:23 51°20.452 2°32.689 65 13.3 59 29.5
2003-03-11 11:24:23 51°20.518 2°33.023 78.3 13.1 76 30.2
2003-03-11 11:25:22 51°20.581 2°33.348 75.2 13.3 72 30
2003-03-11 11:26:23 51°20.646 2°33.689 77.5 13.4 75 30.1
2003-03-11 11:27:23 51°20.712 2°34.02 74.8 13.1 72 30.8
2003-03-11 11:28:23 51°20.78 2°34.351 75.4 12.9 73 30.9
2003-03-11 11:29:23 51°20.854 2°34.683 72.3 13.3 68 31
2003-03-11 11:30:23 51°20.925 2°35.014 75.5 12.8 72 30.9
2003-03-11 11:31:22 51°20.979 2°35.345 87.4 13.2 84 25
2003-03-11 11:32:23 51°20.917 2°35.679 120.9 13.2 119 26.6
2003-03-11 11:33:23 51°20.763 2°35.941 139.9 13.6 139 22
2003-03-11 11:34:23 51°20.588 2°36.164 142.8 13.5 141 18.8
2003-03-11 11:35:22 51°20.409 2°36.377 143.6 13.7 143 19.9
2003-03-11 11:36:22 51°20.226 2°36.594 145.5 13.7 144 21.2
2003-03-11 11:37:23 51°20.04 2°36.817 144.7 13.7 143 20.9
2003-03-11 11:38:22 51°19.863 2°37.033 144.1 13.6 144 21.2
2003-03-11 11:39:23 51°19.68 2°37.259 142.9 13.9 141 22.4
2003-03-11 11:40:22 51°19.522 2°37.503 123.3 13.4 123 21.2
2003-03-11 11:41:23 51°19.527 2°37.844 70.5 12.5 67 20.8
2003-03-11 11:42:23 51°19.667 2°38.095 51.3 12.8 45 20.9
2003-03-11 11:43:22 51°19.821 2°38.328 51.9 13 45 21.8
2003-03-11 11:44:23 51°19.973 2°38.595 55.8 13.1 50 23.3
2003-03-11 11:45:22 51°20.11 2°38.868 57.1 13.5 50 22.9
2003-03-11 11:46:23 51°20.25 2°39.142 58.1 12.8 52 24
2003-03-11 11:47:23 51°20.388 2°39.417 57.9 13.1 52 24.5
2003-03-11 11:48:22 51°20.526 2°39.683 58.3 13 53 24.7
2003-03-11 11:49:23 51°20.658 2°39.976 59.1 13.3 54 25.9
2003-03-11 11:50:23 51°20.792 2°40.269 64.8 13 60 25.4
2003-03-11 11:51:23 51°20.816 2°40.604 100.8 13.3 98 25.2
2003-03-11 11:52:23 51°20.723 2°40.925 118.3 13.3 118 26.2
2003-03-11 11:53:23 51°20.547 2°41.147 151.7 13.8 151 27
2003-03-11 11:54:22 51°20.332 2°41.259 164.3 14 165 18.9
2003-03-11 11:55:22 51°20.111 2°41.371 161.8 13.9 162 20
2003-03-11 11:56:23 51°19.887 2°41.485 161.9 14 163 15.2
2003-03-11 11:57:23 51°19.667 2°41.605 156.7 13.9 158 19.2
2003-03-11 11:58:23 51°19.453 2°41.749 156 13.9 156 20.8
2003-03-11 11:59:22 51°19.297 2°41.989 118.2 13.5 119 22
2003-03-11 12:00:23 51°19.325 2°42.321 63.8 12.7 60 23.1
2003-03-11 12:01:23 51°19.455 2°42.6 58.8 12.9 53 23.7
2003-03-11 12:02:23 51°19.59 2°42.879 54.8 13.6 51 24.3
2003-03-11 12:03:23 51°19.725 2°43.165 57.8 13.4 54 25.3
2003-03-11 12:04:22 51°19.848 2°43.448 59.4 13.2 55 24.9
2003-03-11 12:05:22 51°19.971 2°43.734 59.9 13 56 26.4
2003-03-11 12:06:23 51°20.1 2°44.022 60.5 12.9 57 25.2
2003-03-11 12:07:23 51°20.214 2°44.326 64.8 13.1 61 24.9
2003-03-11 12:08:23 51°20.303 2°44.646 74.8 13.3 72 24.4
2003-03-11 12:09:23 51°20.34 2°44.985 85.6 12.7 84 23.7
2003-03-11 12:10:23 51°20.362 2°45.335 85.2 13.2 84 23.5
2003-03-11 12:11:23 51°20.37 2°45.686 91.3 13.3 89 20.1
2003-03-11 12:12:22 51°20.373 2°46.027 91 12.9 90 15.1
2003-03-11 12:13:23 51°20.371 2°46.383 91.1 13.2 89 15.3
2003-03-11 12:14:23 51°20.374 2°46.73 89.7 12.9 88 16.5
2003-03-11 12:15:23 51°20.368 2°47.08 94.1 13.2 93 15.2
2003-03-11 12:16:23 51°20.354 2°47.434 94.2 13.3 93 18.3
2003-03-11 12:17:23 51°20.342 2°47.786 93.8 13.2 94 20.1
2003-03-11 12:18:23 51°20.245 2°48.084 139.2 13.4 140 21.6
2003-03-11 12:19:23 51°20.022 2°48.164 171.9 14.3 174 21.8
2003-03-11 12:20:23 51°19.785 2°48.201 172.4 14.4 174 21.4
2003-03-11 12:21:22 51°19.548 2°48.239 173.1 14.4 174 19.9
2003-03-11 12:22:23 51°19.307 2°48.282 172.4 14.3 173 17.6
2003-03-11 12:23:23 51°19.073 2°48.327 173.1 14.3 173 15.9
2003-03-11 12:24:23 51°18.917 2°48.529 101.2 12.3 102 13.4
2003-03-11 12:25:23 51°18.948 2°48.864 80.3 13.3 78 12.3
2003-03-11 12:26:23 51°18.996 2°49.208 80.5 13.3 78 11.5
2003-03-11 12:27:23 51°19.04 2°49.555 80.9 13.1 78 10.9
2003-03-11 12:28:23 51°19.071 2°49.906 86.6 13.4 85 10.4
2003-03-11 12:29:24 51°19.089 2°50.269 86.7 13.2 85 12.2
2003-03-11 12:30:23 51°19.077 2°50.604 111.3 13.1 111 13.8
2003-03-11 12:31:23 51°18.884 2°50.761 178.6 14 178 14.2
2003-03-11 12:32:23 51°18.646 2°50.766 178.6 14.5 179 13.8
2003-03-11 12:33:23 51°18.406 2°50.771 178.9 14.5 179 13.3
2003-03-11 12:34:23 51°18.228 2°50.94 108.4 12.8 112 12.6
2003-03-11 12:35:23 51°18.219 2°51.286 90.7 13.3 90 11.9
2003-03-11 12:36:23 51°18.221 2°51.64 89.5 13.2 89 11.1
2003-03-11 12:37:23 51°18.218 2°51.995 93.6 13.3 93 10.5
2003-03-11 12:38:23 51°18.123 2°52.307 140.3 13.8 140 10.2
2003-03-11 12:39:23 51°17.898 2°52.381 177.5 14.2 178 10
2003-03-11 12:40:23 51°17.659 2°52.399 177.9 14.5 177 9.9
2003-03-11 12:41:24 51°17.415 2°52.417 178.1 14.5 178 9.9
2003-03-11 12:42:23 51°17.179 2°52.432 178.3 14.4 178 9.4
2003-03-11 12:43:24 51°16.938 2°52.466 169.1 14.3 168 9.2
2003-03-11 12:44:23 51°16.719 2°52.592 156.3 14.2 156 9.7
2003-03-11 12:45:23 51°16.512 2°52.779 148.7 14.3 148 11.3
2003-03-11 12:46:23 51°16.315 2°52.984 148.2 14.1 147 11.9
2003-03-11 12:47:23 51°16.146 2°53.143 151.4 9 154 12
2003-03-11 12:48:23 51°16.048 2°53.198 172.6 4.3 174 11.8
2003-03-11 12:49:23 51°16.025 2°53.191 190.1 0.4 199 12
2003-03-11 12:50:24 51°16.019 2°53.187 172.3 0.5 194 12
2003-03-11 12:51:23 51°16.011 2°53.185 157.5 0.6 193 12
2003-03-11 12:52:23 51°16.001 2°53.184 152.3 0.6 183 11.9
2003-03-11 12:53:23 51°15.989 2°53.183 153.9 0.7 182 12
2003-03-11 12:54:23 51°15.978 2°53.182 158.3 0.8 184 11.9
2003-03-11 12:55:23 51°15.958 2°53.184 160.7 3.1 165 11.8
2003-03-11 12:56:23 51°15.819 2°53.305 142.5 12.1 144 11.5
2003-03-11 12:57:23 51°15.646 2°53.496 143.7 12.7 145 10.8
2003-03-11 12:58:23 51°15.475 2°53.696 141.5 12.8 142 10
2003-03-11 12:59:23 51°15.307 2°53.906 143 13 143 9.4
2003-03-11 13:00:24 51°15.135 2°54.114 142.6 12.7 143 8.7
2003-03-11 13:01:23 51°14.969 2°54.316 142.7 12.8 143 8.3
2003-03-11 13:02:24 51°14.793 2°54.534 143.3 13.1 142 9.1
2003-03-11 13:03:24 51°14.629 2°54.738 141.2 12 141 9.2
2003-03-11 13:04:23 51°14.477 2°54.936 138.2 11.9 138 9.6